sensor_id;sensor_type;location;lat;lon;timestamp;pressure;altitude;pressure_sealevel;temperature;humidity
81232;BME280;70703;55.652;37.710;2023-07-31T00:00:11;99447.56;;;17.10;67.88
81232;BME280;70703;55.652;37.710;2023-07-31T00:00:24;99448.38;;;17.10;68.24
81232;BME280;70703;55.652;37.710;2023-07-31T00:00:37;99456.59;;;17.15;67.77
81232;BME280;70703;55.652;37.710;2023-07-31T00:00:49;99455.75;;;17.15;68.07
81232;BME280;70703;55.652;37.710;2023-07-31T00:01:01;99400.72;;;16.80;67.83
81232;BME280;70703;55.652;37.710;2023-07-31T00:01:13;99449.66;;;17.08;68.32
81232;BME280;70703;55.652;37.710;2023-07-31T00:01:25;99448.59;;;17.09;68.32
81232;BME280;70703;55.652;37.710;2023-07-31T00:01:36;99453.28;;;17.13;68.25
81232;BME280;70703;55.652;37.710;2023-07-31T00:01:49;99448.97;;;17.12;68.39
81232;BME280;70703;55.652;37.710;2023-07-31T00:02:02;99457.63;;;17.14;68.33
81232;BME280;70703;55.652;37.710;2023-07-31T00:02:14;99453.88;;;17.15;68.49
81232;BME280;70703;55.652;37.710;2023-07-31T00:02:26;99442.63;;;17.07;68.14
81232;BME280;70703;55.652;37.710;2023-07-31T00:02:39;99457.53;;;17.09;68.25
81232;BME280;70703;55.652;37.710;2023-07-31T00:02:50;99451.06;;;17.10;68.20
81232;BME280;70703;55.652;37.710;2023-07-31T00:03:02;99458.69;;;17.13;68.52
81232;BME280;70703;55.652;37.710;2023-07-31T00:03:14;99451.91;;;17.11;68.10
81232;BME280;70703;55.652;37.710;2023-07-31T00:03:28;99452.47;;;17.13;68.02
81232;BME280;70703;55.652;37.710;2023-07-31T00:03:40;99448.97;;;17.12;67.90
81232;BME280;70703;55.652;37.710;2023-07-31T00:03:51;99447.19;;;17.06;68.22
81232;BME280;70703;55.652;37.710;2023-07-31T00:04:03;99460.81;;;17.11;68.12
81232;BME280;70703;55.652;37.710;2023-07-31T00:04:15;99451.31;;;17.09;68.20
81232;BME280;70703;55.652;37.710;2023-07-31T00:04:28;99452.72;;;17.11;68.10
81232;BME280;70703;55.652;37.710;2023-07-31T00:04:39;99458.69;;;17.13;68.03
81232;BME280;70703;55.652;37.710;2023-07-31T00:04:51;99445.56;;;17.05;68.31
81232;BME280;70703;55.652;37.710;2023-07-31T00:05:04;99448.84;;;17.07;68.08
81232;BME280;70703;55.652;37.710;2023-07-31T00:05:15;99436.53;;;16.99;68.22
81232;BME280;70703;55.652;37.710;2023-07-31T00:05:28;99452.47;;;17.13;68.15
81232;BME280;70703;55.652;37.710;2023-07-31T00:05:39;99455.41;;;17.11;68.31
81232;BME280;70703;55.652;37.710;2023-07-31T00:05:51;99442.63;;;17.07;68.13
81232;BME280;70703;55.652;37.710;2023-07-31T00:06:02;99421.34;;;16.87;68.29
81232;BME280;70703;55.652;37.710;2023-07-31T00:06:15;99401.19;;;16.77;68.17
81232;BME280;70703;55.652;37.710;2023-07-31T00:06:27;99440.97;;;17.06;68.48
81232;BME280;70703;55.652;37.710;2023-07-31T00:06:39;99453.75;;;17.10;68.26
81232;BME280;70703;55.652;37.710;2023-07-31T00:06:51;99444.72;;;17.05;68.27
81232;BME280;70703;55.652;37.710;2023-07-31T00:07:04;99448.03;;;17.07;67.96
81232;BME280;70703;55.652;37.710;2023-07-31T00:07:17;99459.16;;;17.10;68.10
81232;BME280;70703;55.652;37.710;2023-07-31T00:07:29;99449.91;;;17.06;68.17
81232;BME280;70703;55.652;37.710;2023-07-31T00:07:40;99452.13;;;17.09;68.40
81232;BME280;70703;55.652;37.710;2023-07-31T00:07:51;99433.47;;;16.96;68.45
81232;BME280;70703;55.652;37.710;2023-07-31T00:08:05;99450.75;;;17.07;68.28
81232;BME280;70703;55.652;37.710;2023-07-31T00:08:18;99455.66;;;17.10;68.59
81232;BME280;70703;55.652;37.710;2023-07-31T00:08:31;99452.59;;;17.06;68.36
81232;BME280;70703;55.652;37.710;2023-07-31T00:08:43;99458.34;;;17.10;68.33
81232;BME280;70703;55.652;37.710;2023-07-31T00:08:55;99450.50;;;17.08;68.60
81232;BME280;70703;55.652;37.710;2023-07-31T00:09:07;99452.97;;;17.10;68.13
81232;BME280;70703;55.652;37.710;2023-07-31T00:09:21;99434.53;;;16.95;68.16
81232;BME280;70703;55.652;37.710;2023-07-31T00:09:33;99447.69;;;17.03;68.58
81232;BME280;70703;55.652;37.710;2023-07-31T00:09:44;99453.69;;;17.05;68.53
81232;BME280;70703;55.652;37.710;2023-07-31T00:09:56;99462.91;;;17.09;68.53
81232;BME280;70703;55.652;37.710;2023-07-31T00:10:12;99444.72;;;17.05;68.32
81232;BME280;70703;55.652;37.710;2023-07-31T00:10:25;99457.53;;;17.09;68.49
81232;BME280;70703;55.652;37.710;2023-07-31T00:10:37;99457.53;;;17.09;68.27
81232;BME280;70703;55.652;37.710;2023-07-31T00:10:51;99452.59;;;17.06;68.20
81232;BME280;70703;55.652;37.710;2023-07-31T00:11:03;99449.31;;;17.04;68.15
81232;BME280;70703;55.652;37.710;2023-07-31T00:11:15;99458.59;;;17.08;68.41
81232;BME280;70703;55.652;37.710;2023-07-31T00:11:26;99454.25;;;17.07;68.58
81232;BME280;70703;55.652;37.710;2023-07-31T00:11:39;99451.31;;;17.09;68.42
81232;BME280;70703;55.652;37.710;2023-07-31T00:11:51;99458.00;;;17.06;68.46
81232;BME280;70703;55.652;37.710;2023-07-31T00:12:05;99459.66;;;17.07;68.26
81232;BME280;70703;55.652;37.710;2023-07-31T00:12:17;99456.72;;;17.09;68.31
81232;BME280;70703;55.652;37.710;2023-07-31T00:12:28;99446.03;;;17.02;68.24
81232;BME280;70703;55.652;37.710;2023-07-31T00:12:42;99452.03;;;17.04;68.53
81232;BME280;70703;55.652;37.710;2023-07-31T00:12:53;99466.72;;;17.08;68.25
81232;BME280;70703;55.652;37.710;2023-07-31T00:13:04;99453.09;;;17.03;68.41
81232;BME280;70703;55.652;37.710;2023-07-31T00:13:17;99459.66;;;17.07;68.71
81232;BME280;70703;55.652;37.710;2023-07-31T00:13:28;99435.13;;;16.97;68.52
81232;BME280;70703;55.652;37.710;2023-07-31T00:13:42;99453.19;;;17.08;68.43
81232;BME280;70703;55.652;37.710;2023-07-31T00:13:54;99456.38;;;17.05;68.77
81232;BME280;70703;55.652;37.710;2023-07-31T00:14:06;99459.66;;;17.07;68.72
81232;BME280;70703;55.652;37.710;2023-07-31T00:14:18;99407.66;;;16.76;68.84
81232;BME280;70703;55.652;37.710;2023-07-31T00:14:30;99452.84;;;17.05;68.82
81232;BME280;70703;55.652;37.710;2023-07-31T00:14:42;99449.81;;;17.01;68.41
81232;BME280;70703;55.652;37.710;2023-07-31T00:14:54;99449.31;;;17.04;68.53
81232;BME280;70703;55.652;37.710;2023-07-31T00:15:08;99453.09;;;17.03;68.33
81232;BME280;70703;55.652;37.710;2023-07-31T00:15:20;99453.09;;;17.03;68.35
81232;BME280;70703;55.652;37.710;2023-07-31T00:15:33;99454.50;;;17.06;68.35
81232;BME280;70703;55.652;37.710;2023-07-31T00:15:44;99410.34;;;16.76;68.26
81232;BME280;70703;55.652;37.710;2023-07-31T00:15:57;99453.09;;;17.03;68.48
81232;BME280;70703;55.652;37.710;2023-07-31T00:16:08;99444.84;;;16.98;68.48
81232;BME280;70703;55.652;37.710;2023-07-31T00:16:19;99416.91;;;16.80;68.29
81232;BME280;70703;55.652;37.710;2023-07-31T00:16:31;99453.09;;;17.03;68.29
81232;BME280;70703;55.652;37.710;2023-07-31T00:16:42;99458.47;;;17.03;67.98
81232;BME280;70703;55.652;37.710;2023-07-31T00:16:55;99459.09;;;17.05;68.30
81232;BME280;70703;55.652;37.710;2023-07-31T00:17:07;99441.09;;;16.99;67.91
81232;BME280;70703;55.652;37.710;2023-07-31T00:17:19;99423.97;;;16.81;68.21
81232;BME280;70703;55.652;37.710;2023-07-31T00:17:30;99451.19;;;17.04;68.25
81232;BME280;70703;55.652;37.710;2023-07-31T00:17:42;99444.03;;;16.97;67.77
81232;BME280;70703;55.652;37.710;2023-07-31T00:17:53;99400.50;;;16.70;67.83
81232;BME280;70703;55.652;37.710;2023-07-31T00:18:05;99418.56;;;16.81;68.25
81232;BME280;70703;55.652;37.710;2023-07-31T00:18:16;99453.09;;;17.03;67.94
81232;BME280;70703;55.652;37.710;2023-07-31T00:18:29;99449.31;;;17.04;67.74
81232;BME280;70703;55.652;37.710;2023-07-31T00:18:41;99444.84;;;16.98;67.96
81232;BME280;70703;55.652;37.710;2023-07-31T00:18:53;99452.03;;;17.04;67.90
81232;BME280;70703;55.652;37.710;2023-07-31T00:19:04;99454.13;;;17.02;68.24
81232;BME280;70703;55.652;37.710;2023-07-31T00:19:15;99400.16;;;16.66;67.82
81232;BME280;70703;55.652;37.710;2023-07-31T00:19:27;99422.19;;;16.87;67.83
81232;BME280;70703;55.652;37.710;2023-07-31T00:19:38;99454.13;;;17.02;67.96
81232;BME280;70703;55.652;37.710;2023-07-31T00:19:50;99437.16;;;16.90;68.16
81232;BME280;70703;55.652;37.710;2023-07-31T00:20:04;99446.50;;;16.99;68.02
81232;BME280;70703;55.652;37.710;2023-07-31T00:20:18;99454.13;;;17.02;68.42
81232;BME280;70703;55.652;37.710;2023-07-31T00:20:34;99451.44;;;17.02;68.19
81232;BME280;70703;55.652;37.710;2023-07-31T00:20:47;99449.56;;;17.02;68.13
81232;BME280;70703;55.652;37.710;2023-07-31T00:20:59;99452.50;;;17.01;68.12
81232;BME280;70703;55.652;37.710;2023-07-31T00:21:10;99434.69;;;16.88;68.17
81232;BME280;70703;55.652;37.710;2023-07-31T00:21:22;99457.91;;;17.01;68.34
81232;BME280;70703;55.652;37.710;2023-07-31T00:21:34;99420.34;;;16.76;68.32
81232;BME280;70703;55.652;37.710;2023-07-31T00:21:45;99407.56;;;16.71;68.30
81232;BME280;70703;55.652;37.710;2023-07-31T00:21:56;99452.50;;;17.01;68.48
81232;BME280;70703;55.652;37.710;2023-07-31T00:22:09;99432.16;;;16.87;68.20
81232;BME280;70703;55.652;37.710;2023-07-31T00:22:22;99454.03;;;16.97;68.08
81232;BME280;70703;55.652;37.710;2023-07-31T00:22:33;99452.50;;;17.01;68.41
81232;BME280;70703;55.652;37.710;2023-07-31T00:22:45;99455.22;;;17.01;68.40
81232;BME280;70703;55.652;37.710;2023-07-31T00:22:57;99445.94;;;16.97;68.02
81232;BME280;70703;55.652;37.710;2023-07-31T00:23:09;99448.63;;;16.97;68.00
81232;BME280;70703;55.652;37.710;2023-07-31T00:23:21;99453.19;;;16.96;68.21
81232;BME280;70703;55.652;37.710;2023-07-31T00:23:32;99455.66;;;16.98;68.26
81232;BME280;70703;55.652;37.710;2023-07-31T00:23:44;99452.97;;;16.98;68.12
81232;BME280;70703;55.652;37.710;2023-07-31T00:23:56;99450.50;;;16.96;68.30
81232;BME280;70703;55.652;37.710;2023-07-31T00:24:10;99452.75;;;16.99;68.63
81232;BME280;70703;55.652;37.710;2023-07-31T00:24:21;99454.03;;;16.97;68.46
81232;BME280;70703;55.652;37.710;2023-07-31T00:24:33;99458.38;;;16.98;68.73
81232;BME280;70703;55.652;37.710;2023-07-31T00:24:44;99451.91;;;16.99;68.71
81232;BME280;70703;55.652;37.710;2023-07-31T00:24:56;99409.19;;;16.72;68.76
81232;BME280;70703;55.652;37.710;2023-07-31T00:25:08;99446.19;;;16.95;68.35
81232;BME280;70703;55.652;37.710;2023-07-31T00:25:20;99462.16;;;16.97;68.47
81232;BME280;70703;55.652;37.710;2023-07-31T00:25:31;99450.25;;;16.98;68.63
81232;BME280;70703;55.652;37.710;2023-07-31T00:25:43;99458.38;;;16.98;68.61
81232;BME280;70703;55.652;37.710;2023-07-31T00:25:56;99461.06;;;16.98;68.63
81232;BME280;70703;55.652;37.710;2023-07-31T00:26:07;99448.63;;;16.97;68.42
81232;BME280;70703;55.652;37.710;2023-07-31T00:26:19;99454.28;;;16.95;68.54
81232;BME280;70703;55.652;37.710;2023-07-31T00:26:31;99457.56;;;16.97;68.53
81232;BME280;70703;55.652;37.710;2023-07-31T00:26:43;99450.75;;;16.95;68.32
81232;BME280;70703;55.652;37.710;2023-07-31T00:26:54;99461.06;;;16.98;68.39
81232;BME280;70703;55.652;37.710;2023-07-31T00:27:06;99455.66;;;16.98;68.09
81232;BME280;70703;55.652;37.710;2023-07-31T00:27:17;99454.03;;;16.97;68.20
81232;BME280;70703;55.652;37.710;2023-07-31T00:27:29;99452.38;;;16.96;68.10
81232;BME280;70703;55.652;37.710;2023-07-31T00:27:42;99455.09;;;16.96;67.97
81232;BME280;70703;55.652;37.710;2023-07-31T00:27:56;99451.59;;;16.95;68.41
81232;BME280;70703;55.652;37.710;2023-07-31T00:28:07;99456.75;;;16.97;68.04
81232;BME280;70703;55.652;37.710;2023-07-31T00:28:18;99456.97;;;16.95;68.06
81232;BME280;70703;55.652;37.710;2023-07-31T00:28:29;99458.59;;;16.96;68.31
81232;BME280;70703;55.652;37.710;2023-07-31T00:28:43;99449.00;;;16.89;68.32
81232;BME280;70703;55.652;37.710;2023-07-31T00:28:55;99448.53;;;16.92;68.59
81232;BME280;70703;55.652;37.710;2023-07-31T00:29:06;99450.75;;;16.95;68.63
81232;BME280;70703;55.652;37.710;2023-07-31T00:29:18;99453.69;;;16.93;68.54
81232;BME280;70703;55.652;37.710;2023-07-31T00:29:30;99452.03;;;16.92;68.27
81232;BME280;70703;55.652;37.710;2023-07-31T00:29:43;99455.09;;;16.96;68.40
81232;BME280;70703;55.652;37.710;2023-07-31T00:29:54;99459.94;;;16.94;68.79
81232;BME280;70703;55.652;37.710;2023-07-31T00:30:06;99459.94;;;16.94;68.37
81232;BME280;70703;55.652;37.710;2023-07-31T00:30:19;99452.88;;;16.93;68.44
81232;BME280;70703;55.652;37.710;2023-07-31T00:30:31;99454.53;;;16.94;68.32
81232;BME280;70703;55.652;37.710;2023-07-31T00:30:43;99453.44;;;16.95;68.22
81232;BME280;70703;55.652;37.710;2023-07-31T00:30:54;99463.19;;;16.96;68.31
81232;BME280;70703;55.652;37.710;2023-07-31T00:31:10;99461.53;;;16.95;68.76
81232;BME280;70703;55.652;37.710;2023-07-31T00:31:22;99452.88;;;16.93;68.66
81232;BME280;70703;55.652;37.710;2023-07-31T00:31:33;99457.22;;;16.94;68.42
81232;BME280;70703;55.652;37.710;2023-07-31T00:31:44;99424.91;;;16.75;68.45
81232;BME280;70703;55.652;37.710;2023-07-31T00:31:56;99462.84;;;16.92;68.57
81232;BME280;70703;55.652;37.710;2023-07-31T00:32:07;99451.59;;;16.95;68.48
81232;BME280;70703;55.652;37.710;2023-07-31T00:32:22;99447.72;;;16.91;68.82
81232;BME280;70703;55.652;37.710;2023-07-31T00:32:34;99453.94;;;16.92;68.89
81232;BME280;70703;55.652;37.710;2023-07-31T00:32:47;99449.34;;;16.92;68.87
81232;BME280;70703;55.652;37.710;2023-07-31T00:33:02;99398.66;;;16.59;68.59
81232;BME280;70703;55.652;37.710;2023-07-31T00:33:14;99449.56;;;16.91;68.45
81232;BME280;70703;55.652;37.710;2023-07-31T00:33:25;99451.22;;;16.92;68.55
81232;BME280;70703;55.652;37.710;2023-07-31T00:33:37;99453.69;;;16.93;68.84
81232;BME280;70703;55.652;37.710;2023-07-31T00:33:49;99425.38;;;16.72;68.96
81232;BME280;70703;55.652;37.710;2023-07-31T00:34:01;99391.72;;;16.51;68.69
81232;BME280;70703;55.652;37.710;2023-07-31T00:34:12;99452.28;;;16.91;68.90
81232;BME280;70703;55.652;37.710;2023-07-31T00:34:23;99440.91;;;16.89;69.04
81232;BME280;70703;55.652;37.710;2023-07-31T00:34:36;99452.88;;;16.93;68.94
81232;BME280;70703;55.652;37.710;2023-07-31T00:34:49;99452.03;;;16.92;68.95
81232;BME280;70703;55.652;37.710;2023-07-31T00:35:01;99433.38;;;16.79;68.77
81232;BME280;70703;55.652;37.710;2023-07-31T00:35:15;99445.50;;;16.88;68.50
81232;BME280;70703;55.652;37.710;2023-07-31T00:35:28;99456.63;;;16.92;68.51
81232;BME280;70703;55.652;37.710;2023-07-31T00:35:39;99451.22;;;16.92;68.64
81232;BME280;70703;55.652;37.710;2023-07-31T00:35:52;99451.69;;;16.89;68.60
81232;BME280;70703;55.652;37.710;2023-07-31T00:36:04;99440.91;;;16.89;68.77
81232;BME280;70703;55.652;37.710;2023-07-31T00:36:15;99441.22;;;16.80;68.89
81232;BME280;70703;55.652;37.710;2023-07-31T00:36:28;99454.16;;;16.90;68.83
81232;BME280;70703;55.652;37.710;2023-07-31T00:36:40;99455.22;;;16.89;68.63
81232;BME280;70703;55.652;37.710;2023-07-31T00:36:52;99382.69;;;16.45;68.56
81232;BME280;70703;55.652;37.710;2023-07-31T00:37:04;99417.75;;;16.69;68.67
81232;BME280;70703;55.652;37.710;2023-07-31T00:37:17;99443.81;;;16.87;68.38
81232;BME280;70703;55.652;37.710;2023-07-31T00:37:29;99452.28;;;16.91;68.23
81232;BME280;70703;55.652;37.710;2023-07-31T00:37:41;99453.34;;;16.90;68.61
81232;BME280;70703;55.652;37.710;2023-07-31T00:37:52;99443.44;;;16.83;68.17
81232;BME280;70703;55.652;37.710;2023-07-31T00:38:05;99452.50;;;16.89;68.33
81232;BME280;70703;55.652;37.710;2023-07-31T00:38:17;99453.34;;;16.90;68.64
81232;BME280;70703;55.652;37.710;2023-07-31T00:38:30;99445.25;;;16.90;68.52
81232;BME280;70703;55.652;37.710;2023-07-31T00:38:42;99450.41;;;16.91;68.53
81232;BME280;70703;55.652;37.710;2023-07-31T00:38:54;99447.72;;;16.91;68.38
81232;BME280;70703;55.652;37.710;2023-07-31T00:39:05;99445.50;;;16.88;68.27
81232;BME280;70703;55.652;37.710;2023-07-31T00:39:16;99451.69;;;16.89;68.65
81232;BME280;70703;55.652;37.710;2023-07-31T00:39:30;99449.56;;;16.91;68.49
81232;BME280;70703;55.652;37.710;2023-07-31T00:39:42;99441.91;;;16.88;68.38
81232;BME280;70703;55.652;37.710;2023-07-31T00:39:55;99450.66;;;16.90;68.52
81232;BME280;70703;55.652;37.710;2023-07-31T00:40:08;99450.03;;;16.88;68.46
81232;BME280;70703;55.652;37.710;2023-07-31T00:40:19;99447.72;;;16.91;68.71
81232;BME280;70703;55.652;37.710;2023-07-31T00:40:34;99446.31;;;16.89;68.73
81232;BME280;70703;55.652;37.710;2023-07-31T00:40:47;99444.63;;;16.88;68.23
81232;BME280;70703;55.652;37.710;2023-07-31T00:40:59;99431.94;;;16.76;68.48
81232;BME280;70703;55.652;37.710;2023-07-31T00:41:12;99443.81;;;16.87;68.35
81232;BME280;70703;55.652;37.710;2023-07-31T00:41:23;99437.81;;;16.85;68.23
81232;BME280;70703;55.652;37.710;2023-07-31T00:41:34;99446.88;;;16.91;68.42
81232;BME280;70703;55.652;37.710;2023-07-31T00:41:46;99445.25;;;16.90;68.39
81232;BME280;70703;55.652;37.710;2023-07-31T00:41:58;99440.91;;;16.89;67.95
81232;BME280;70703;55.652;37.710;2023-07-31T00:42:10;99446.75;;;16.85;68.16
81232;BME280;70703;55.652;37.710;2023-07-31T00:42:21;99447.09;;;16.89;68.01
81232;BME280;70703;55.652;37.710;2023-07-31T00:42:33;99446.06;;;16.90;67.86
81232;BME280;70703;55.652;37.710;2023-07-31T00:42:47;99450.91;;;16.88;68.15
81232;BME280;70703;55.652;37.710;2023-07-31T00:43:01;99447.31;;;16.88;68.06
81232;BME280;70703;55.652;37.710;2023-07-31T00:43:14;99441.09;;;16.87;67.66
81232;BME280;70703;55.652;37.710;2023-07-31T00:43:25;99438.03;;;16.83;67.97
81232;BME280;70703;55.652;37.710;2023-07-31T00:43:37;99439.69;;;16.84;67.84
81232;BME280;70703;55.652;37.710;2023-07-31T00:43:50;99445.09;;;16.84;68.00
81232;BME280;70703;55.652;37.710;2023-07-31T00:44:03;99445.50;;;16.88;68.00
81232;BME280;70703;55.652;37.710;2023-07-31T00:44:14;99446.31;;;16.89;67.68
81232;BME280;70703;55.652;37.710;2023-07-31T00:44:26;99449.22;;;16.87;68.16
81232;BME280;70703;55.652;37.710;2023-07-31T00:44:38;99447.31;;;16.88;68.10
81232;BME280;70703;55.652;37.710;2023-07-31T00:44:50;99440.25;;;16.87;67.83
81232;BME280;70703;55.652;37.710;2023-07-31T00:45:02;99450.91;;;16.88;67.68
81232;BME280;70703;55.652;37.710;2023-07-31T00:45:16;99443.81;;;16.87;68.07
81232;BME280;70703;55.652;37.710;2023-07-31T00:45:28;99439.69;;;16.84;67.80
81232;BME280;70703;55.652;37.710;2023-07-31T00:45:40;99442.16;;;16.86;68.18
81232;BME280;70703;55.652;37.710;2023-07-31T00:45:53;99446.31;;;16.89;67.85
81232;BME280;70703;55.652;37.710;2023-07-31T00:46:05;99446.31;;;16.89;67.85
81232;BME280;70703;55.652;37.710;2023-07-31T00:46:17;99438.53;;;16.80;68.14
81232;BME280;70703;55.652;37.710;2023-07-31T00:46:28;99437.47;;;16.81;67.98
81232;BME280;70703;55.652;37.710;2023-07-31T00:46:40;99445.34;;;16.83;68.18
81232;BME280;70703;55.652;37.710;2023-07-31T00:46:52;99448.38;;;16.87;68.00
81232;BME280;70703;55.652;37.710;2023-07-31T00:47:06;99446.75;;;16.85;67.87
81232;BME280;70703;55.652;37.710;2023-07-31T00:47:21;99442.88;;;16.81;67.90
81232;BME280;70703;55.652;37.710;2023-07-31T00:47:33;99426.56;;;16.76;67.95
81232;BME280;70703;55.652;37.710;2023-07-31T00:47:45;99441.34;;;16.85;68.34
81232;BME280;70703;55.652;37.710;2023-07-31T00:47:58;99441.81;;;16.82;67.97
81232;BME280;70703;55.652;37.710;2023-07-31T00:48:09;99445.66;;;16.87;68.21
81232;BME280;70703;55.652;37.710;2023-07-31T00:48:21;99445.91;;;16.85;67.95
81232;BME280;70703;55.652;37.710;2023-07-31T00:48:33;99449.22;;;16.87;67.91
81232;BME280;70703;55.652;37.710;2023-07-31T00:48:45;99441.00;;;16.82;67.92
81232;BME280;70703;55.652;37.710;2023-07-31T00:48:59;99447.31;;;16.88;68.01
81232;BME280;70703;55.652;37.710;2023-07-31T00:49:12;99453.78;;;16.87;68.31
81232;BME280;70703;55.652;37.710;2023-07-31T00:49:23;99448.38;;;16.87;68.37
81232;BME280;70703;55.652;37.710;2023-07-31T00:49:34;99451.06;;;16.87;68.50
81232;BME280;70703;55.652;37.710;2023-07-31T00:49:46;99445.09;;;16.84;68.29
81232;BME280;70703;55.652;37.710;2023-07-31T00:49:57;99413.88;;;16.65;68.10
81232;BME280;70703;55.652;37.710;2023-07-31T00:50:09;99441.34;;;16.85;68.46
81232;BME280;70703;55.652;37.710;2023-07-31T00:50:24;99443.44;;;16.83;68.28
81232;BME280;70703;55.652;37.710;2023-07-31T00:50:36;99447.56;;;16.86;68.26
81232;BME280;70703;55.652;37.710;2023-07-31T00:50:47;99446.50;;;16.87;67.97
81232;BME280;70703;55.652;37.710;2023-07-31T00:50:59;99427.84;;;16.74;68.21
81232;BME280;70703;55.652;37.710;2023-07-31T00:51:12;99452.72;;;16.88;68.01
81232;BME280;70703;55.652;37.710;2023-07-31T00:51:24;99453.19;;;16.84;68.03
81232;BME280;70703;55.652;37.710;2023-07-31T00:51:36;99445.34;;;16.83;68.05
81232;BME280;70703;55.652;37.710;2023-07-31T00:51:48;99447.56;;;16.86;67.94
81232;BME280;70703;55.652;37.710;2023-07-31T00:52:00;99449.44;;;16.85;68.04
81232;BME280;70703;55.652;37.710;2023-07-31T00:52:14;99445.34;;;16.83;68.16
81232;BME280;70703;55.652;37.710;2023-07-31T00:52:25;99441.81;;;16.82;68.24
81232;BME280;70703;55.652;37.710;2023-07-31T00:52:36;99455.41;;;16.88;68.14
81232;BME280;70703;55.652;37.710;2023-07-31T00:52:49;99442.97;;;16.87;68.58
81232;BME280;70703;55.652;37.710;2023-07-31T00:53:02;99444.53;;;16.82;68.46
81232;BME280;70703;55.652;37.710;2023-07-31T00:53:14;99437.97;;;16.78;68.61
81232;BME280;70703;55.652;37.710;2023-07-31T00:53:25;99447.81;;;16.84;68.38
81232;BME280;70703;55.652;37.710;2023-07-31T00:53:39;99416.34;;;16.66;68.64
81232;BME280;70703;55.652;37.710;2023-07-31T00:53:51;99424.22;;;16.68;68.29
81232;BME280;70703;55.652;37.710;2023-07-31T00:54:06;99439.56;;;16.79;68.65
81232;BME280;70703;55.652;37.710;2023-07-31T00:54:17;99447.56;;;16.86;68.65
81232;BME280;70703;55.652;37.710;2023-07-31T00:54:29;99446.75;;;16.85;68.47
81232;BME280;70703;55.652;37.710;2023-07-31T00:54:40;99442.63;;;16.83;68.66
81232;BME280;70703;55.652;37.710;2023-07-31T00:54:51;99432.44;;;16.73;68.60
81232;BME280;70703;55.652;37.710;2023-07-31T00:55:04;99423.75;;;16.71;68.60
81232;BME280;70703;55.652;37.710;2023-07-31T00:55:18;99445.09;;;16.84;68.54
81232;BME280;70703;55.652;37.710;2023-07-31T00:55:31;99414.59;;;16.60;68.56
81232;BME280;70703;55.652;37.710;2023-07-31T00:55:45;99450.50;;;16.84;68.76
81232;BME280;70703;55.652;37.710;2023-07-31T00:55:57;99449.69;;;16.84;68.86
81232;BME280;70703;55.652;37.710;2023-07-31T00:56:10;99450.50;;;16.84;68.51
81232;BME280;70703;55.652;37.710;2023-07-31T00:56:24;99446.75;;;16.85;68.80
81232;BME280;70703;55.652;37.710;2023-07-31T00:56:36;99427.84;;;16.74;68.65
81232;BME280;70703;55.652;37.710;2023-07-31T00:56:50;99444.53;;;16.82;68.69
81232;BME280;70703;55.652;37.710;2023-07-31T00:57:05;99445.09;;;16.84;68.51
81232;BME280;70703;55.652;37.710;2023-07-31T00:57:19;99450.50;;;16.84;68.91
81232;BME280;70703;55.652;37.710;2023-07-31T00:57:33;99447.81;;;16.84;68.95
81232;BME280;70703;55.652;37.710;2023-07-31T00:57:46;99446.75;;;16.85;68.97
81232;BME280;70703;55.652;37.710;2023-07-31T00:57:58;99407.31;;;16.61;69.05
81232;BME280;70703;55.652;37.710;2023-07-31T00:58:09;99446.16;;;16.83;69.01
81232;BME280;70703;55.652;37.710;2023-07-31T00:58:23;99443.44;;;16.83;68.84
81232;BME280;70703;55.652;37.710;2023-07-31T00:58:36;99443.69;;;16.82;69.00
81232;BME280;70703;55.652;37.710;2023-07-31T00:58:49;99444.28;;;16.84;68.65
81232;BME280;70703;55.652;37.710;2023-07-31T00:59:01;99436.88;;;16.79;68.69
81232;BME280;70703;55.652;37.710;2023-07-31T00:59:12;99451.56;;;16.83;69.07
81232;BME280;70703;55.652;37.710;2023-07-31T00:59:24;99448.84;;;16.83;68.64
81232;BME280;70703;55.652;37.710;2023-07-31T00:59:36;99400.41;;;16.53;68.50
81232;BME280;70703;55.652;37.710;2023-07-31T00:59:48;99438.53;;;16.80;68.77
81232;BME280;70703;55.652;37.710;2023-07-31T01:00:00;99441.00;;;16.82;68.98
81232;BME280;70703;55.652;37.710;2023-07-31T01:00:17;99454.25;;;16.83;68.48
81232;BME280;70703;55.652;37.710;2023-07-31T01:00:29;99397.94;;;16.52;68.62
81232;BME280;70703;55.652;37.710;2023-07-31T01:00:47;99448.53;;;16.80;68.55
81232;BME280;70703;55.652;37.710;2023-07-31T01:01:05;99441.47;;;16.79;68.87
81232;BME280;70703;55.652;37.710;2023-07-31T01:01:22;99447.22;;;16.82;68.62
81232;BME280;70703;55.652;37.710;2023-07-31T01:01:37;99448.84;;;16.83;68.71
81232;BME280;70703;55.652;37.710;2023-07-31T01:01:49;99453.19;;;16.84;68.47
81232;BME280;70703;55.652;37.710;2023-07-31T01:02:05;99451.56;;;16.83;68.42
81232;BME280;70703;55.652;37.710;2023-07-31T01:02:21;99447.81;;;16.84;68.52
81232;BME280;70703;55.652;37.710;2023-07-31T01:02:34;99447.22;;;16.82;68.63
81232;BME280;70703;55.652;37.710;2023-07-31T01:02:48;99450.75;;;16.83;68.90
81232;BME280;70703;55.652;37.710;2023-07-31T01:03:00;99440.66;;;16.78;68.84
81232;BME280;70703;55.652;37.710;2023-07-31T01:03:12;99450.75;;;16.83;68.69
81232;BME280;70703;55.652;37.710;2023-07-31T01:03:24;99444.53;;;16.82;68.89
81232;BME280;70703;55.652;37.710;2023-07-31T01:03:36;99448.03;;;16.83;68.56
81232;BME280;70703;55.652;37.710;2023-07-31T01:03:48;99445.81;;;16.80;68.74
81232;BME280;70703;55.652;37.710;2023-07-31T01:04:00;99447.22;;;16.82;68.70
81232;BME280;70703;55.652;37.710;2023-07-31T01:04:13;99449.09;;;16.82;68.97
81232;BME280;70703;55.652;37.710;2023-07-31T01:04:27;99449.31;;;16.80;68.61
81232;BME280;70703;55.652;37.710;2023-07-31T01:04:39;99449.94;;;16.82;68.56